Belle Vernon, PA (15012)

6:28 PM EDT on August 17, 2017 (GMT -0400)
Gibsonton | | Change Station

Elev 823 ft 40.13 °N, 79.88 °W | Updated 18 seconds ago

Rain
Rain
78.8 °F
Feels Like 83 °F
N
0.0
Wind Variable Wind from ENE

Today
High -- | Low -- °F
--% Chance of Precip.
Yesterday
High -- | Low -- °F
Precip. -- in
Pressure 29.93 in
Visibility 10.0 miles
Clouds Few 4000 ft
Few 6000 ft
Mostly Cloudy 7000 ft
Heat Index 83 °F
Dew Point 76 °F
Humidity 93%
Rainfall 0.36 in
Snow Depth Not available.
6:33 AM 8:13 PM
Waning Crescent, 19% visible
METAR KAFJ 172215Z AUTO 02003KT 10SM FEW040 FEW060 BKN070 23/21 A2993 RMK AO1 LTG DSNT NE TSE09
Pressure 29.93 in
Visibility 10.0 miles
Clouds Few 4000 ft
Few 6000 ft
Mostly Cloudy 7000 ft
Heat Index 83 °F
Dew Point 76 °F
Humidity 93%
Rainfall 0.36 in
Snow Depth Not available.
6:33 AM 8:13 PM
Waning Crescent, 19% visible
METAR KAFJ 172215Z AUTO 02003KT 10SM FEW040 FEW060 BKN070 23/21 A2993 RMK AO1 LTG DSNT NE TSE09

Get Severe Weather Alerts

Thanks for signing up!

Be on the lookout for a verification email in your inbox.

You'll start receiving the daily forecast at 6 AM.

×

10-Day Weather Forecast

Almanac

Astronomy

Aug. 17, 2017 Rise Set
Actual Time
Civil Twilight
Nautical Twilight
Astronomical Twilight
Moon
Length of Visible Light
Length of Day
Tomorrow will be .
, % of the Moon is Illuminated

Today's Extremes

State Highs State Lows

Community

WunderPhotos

Category 6

Welcome to Category 6. This is the collective home for Weather Underground's featured writeups by Dr. Jeff Masters (right), Bob Henson (left), Chris Burt, and other regular contributors.

Nearby

Air Quality

  Air Quality AQ Index Pollutant
Not available.

Snow Depth

Station Depth Elevation

Earthquake Activity

City Distance Mag. Time & Date
Minimum magnitude displayed is 2.5.

Coastal Water Temperatures

Place Temperature

Stations

Nearby Weather Stations

Station Location Temp. Windchill Dew Point Humidity Wind Precip. Elev Updated Type
                   

Watches & Warnings

There are currently no watches in effect.